Time;durP1;ratioP1;P1;durP2;ratioP2;P2;SDS_P1;SDS_P2;PMS_P1;PMS_P2;Temp;Humidity;BMP_temperature;BMP_pressure;BME280_temperature;BME280_humidity;BME280_pressure;Samples;Min_cycle;Max_cycle;Signal;HPM_P1;HPM_P2
2021/09/29 00:01:00;;;;;;;6.05;3.72;;;14.80;99.90;;;;;;4898850;29;20044;-81
2021/09/29 00:03:29;;;;;;;6.22;4.22;;;14.80;99.90;;;;;;4898206;29;20434;-81
2021/09/29 00:05:56;;;;;;;6.53;4.38;;;14.80;99.90;;;;;;4897267;29;20084;-80
2021/09/29 00:08:23;;;;;;;6.22;3.78;;;14.80;99.90;;;;;;4920124;29;20579;-80
2021/09/29 00:10:50;;;;;;;6.65;3.70;;;14.80;99.90;;;;;;4898095;29;20139;-79
2021/09/29 00:13:19;;;;;;;9.02;4.45;;;14.70;99.90;;;;;;4898178;29;20131;-81
2021/09/29 00:15:46;;;;;;;6.63;4.50;;;14.80;99.90;;;;;;4898187;29;20045;-80
2021/09/29 00:18:13;;;;;;;8.07;4.60;;;14.80;99.90;;;;;;4897530;29;20135;-80
2021/09/29 00:20:42;;;;;;;6.90;4.50;;;14.70;99.90;;;;;;4923006;29;20558;-80
2021/09/29 00:23:09;;;;;;;7.38;4.47;;;14.70;99.90;;;;;;4894894;29;20131;-81
2021/09/29 00:25:36;;;;;;;7.03;4.60;;;14.70;99.90;;;;;;4891026;29;20155;-80
2021/09/29 00:28:03;;;;;;;6.78;4.25;;;14.70;99.90;;;;;;4898000;29;20131;-78
2021/09/29 00:30:36;;;;;;;5.97;4.32;;;14.70;99.90;;;;;;4897852;29;20148;-80
2021/09/29 00:33:03;;;;;;;7.10;4.63;;;14.70;99.90;;;;;;4897745;29;20408;-80
2021/09/29 00:35:31;;;;;;;6.90;4.50;;;14.70;99.90;;;;;;4898239;29;20083;-82
2021/09/29 00:37:59;;;;;;;6.85;4.40;;;14.70;99.90;;;;;;4898185;29;20131;-81
2021/09/29 00:40:26;;;;;;;7.82;4.53;;;14.70;99.90;;;;;;4898245;29;20594;-81
2021/09/29 00:42:54;;;;;;;7.32;4.72;;;14.70;99.90;;;;;;4898324;29;20140;-83
2021/09/29 00:45:21;;;;;;;6.93;4.50;;;14.70;99.90;;;;;;4898094;29;20139;-82
2021/09/29 00:47:48;;;;;;;6.57;4.53;;;14.70;99.90;;;;;;4892750;29;20133;-81
2021/09/29 00:50:15;;;;;;;7.70;4.68;;;14.70;99.90;;;;;;4897793;29;20083;-82
2021/09/29 00:52:42;;;;;;;7.60;4.80;;;14.70;99.90;;;;;;4898387;29;20139;-80
2021/09/29 00:55:14;;;;;;;8.68;4.88;;;14.70;99.90;;;;;;4898076;29;20130;-81
2021/09/29 00:57:42;;;;;;;5.75;4.30;;;14.70;99.90;;;;;;4894678;29;20132;-81
2021/09/29 01:00:13;;;;;;;7.18;4.55;;;14.70;99.90;;;;;;4901764;29;20048;-80
2021/09/29 01:02:40;;;;;;;5.32;3.90;;;14.70;99.90;;;;;;4901640;29;20132;-80
2021/09/29 01:05:08;;;;;;;7.35;4.45;;;14.70;99.90;;;;;;4901568;29;20052;-81
2021/09/29 01:07:46;;;;;;;7.25;4.28;;;14.80;99.90;;;;;;4900170;29;20159;-82
2021/09/29 01:10:22;;;;;;;7.15;4.53;;;14.70;99.90;;;;;;4902353;29;20131;-82
2021/09/29 01:12:56;;;;;;;6.05;4.15;;;14.80;99.90;;;;;;4902415;29;20131;-83
2021/09/29 01:15:28;;;;;;;6.37;3.93;;;14.80;99.90;;;;;;4901632;29;20139;-83
2021/09/29 01:18:01;;;;;;;5.88;4.60;;;14.70;99.90;;;;;;4902201;29;20388;-83
2021/09/29 01:20:31;;;;;;;6.10;4.28;;;14.70;99.90;;;;;;4901662;29;20471;-81
2021/09/29 01:23:12;;;;;;;7.72;4.72;;;14.70;99.90;;;;;;4901991;29;20059;-81
2021/09/29 01:25:52;;;;;;;6.95;4.95;;;14.60;99.90;;;;;;4894650;29;20440;-83
2021/09/29 01:28:28;;;;;;;7.03;5.00;;;14.50;99.90;;;;;;4900117;29;20140;-82
2021/09/29 01:30:56;;;;;;;7.22;4.75;;;14.50;99.90;;;;;;4901982;29;20056;-83
2021/09/29 01:33:24;;;;;;;7.15;4.90;;;14.40;99.90;;;;;;4901715;29;20048;-83
2021/09/29 01:35:52;;;;;;;8.50;5.35;;;14.30;99.90;;;;;;4901959;29;20139;-82
2021/09/29 01:38:19;;;;;;;8.45;5.50;;;14.20;99.90;;;;;;4901224;29;20408;-82
2021/09/29 01:40:46;;;;;;;9.35;6.15;;;14.20;99.90;;;;;;4901537;29;20147;-81
2021/09/29 01:43:14;;;;;;;7.47;5.15;;;14.20;99.90;;;;;;4900854;29;20056;-81
2021/09/29 01:45:44;;;;;;;7.78;5.25;;;14.20;99.90;;;;;;4901375;29;20096;-83
2021/09/29 01:48:12;;;;;;;9.60;5.53;;;14.20;99.90;;;;;;4901407;29;20135;-84
2021/09/29 01:50:42;;;;;;;7.63;5.47;;;14.20;99.90;;;;;;4901197;29;20456;-84
2021/09/29 01:53:11;;;;;;;7.43;4.68;;;14.20;99.90;;;;;;4901135;29;20139;-84
2021/09/29 01:55:39;;;;;;;8.02;5.28;;;14.20;99.90;;;;;;4900711;29;20128;-83
2021/09/29 01:58:07;;;;;;;8.43;5.32;;;14.20;99.90;;;;;;4901437;29;20136;-82
2021/09/29 02:00:34;;;;;;;7.72;5.07;;;14.20;99.90;;;;;;4901589;29;20056;-84
2021/09/29 02:03:04;;;;;;;8.45;5.40;;;14.30;99.90;;;;;;4901505;29;20044;-83
2021/09/29 02:05:34;;;;;;;8.38;5.28;;;14.30;99.90;;;;;;4901463;29;20184;-83
2021/09/29 02:08:07;;;;;;;7.78;5.43;;;14.30;99.90;;;;;;4900926;29;20217;-82
2021/09/29 02:10:35;;;;;;;6.78;4.80;;;14.30;99.90;;;;;;4900610;29;20131;-82
2021/09/29 02:13:02;;;;;;;6.70;4.47;;;14.30;99.90;;;;;;4900487;29;20139;-80
2021/09/29 02:15:30;;;;;;;8.00;4.97;;;14.30;99.90;;;;;;4901262;29;20136;-81
2021/09/29 02:17:57;;;;;;;7.95;4.85;;;14.30;99.90;;;;;;4900043;29;20542;-84
2021/09/29 02:20:26;;;;;;;8.02;4.93;;;14.30;99.90;;;;;;4901741;29;20139;-82
2021/09/29 02:22:53;;;;;;;8.02;4.88;;;14.30;99.90;;;;;;4902107;29;20491;-83
2021/09/29 02:25:20;;;;;;;6.78;4.95;;;14.30;99.90;;;;;;4901305;29;20115;-84
2021/09/29 02:27:48;;;;;;;9.70;5.55;;;14.30;99.90;;;;;;4901086;29;20559;-83
2021/09/29 02:30:15;;;;;;;9.18;5.18;;;14.30;99.90;;;;;;4901442;29;20135;-84
2021/09/29 02:32:43;;;;;;;8.18;4.97;;;14.20;99.90;;;;;;4901685;29;20478;-83
2021/09/29 02:35:12;;;;;;;8.32;5.13;;;14.20;99.90;;;;;;4901689;29;20091;-83
2021/09/29 02:37:40;;;;;;;8.38;5.32;;;14.20;99.90;;;;;;4897620;29;20052;-84
2021/09/29 02:40:09;;;;;;;9.38;5.45;;;14.10;99.90;;;;;;4885752;29;20143;-84
2021/09/29 02:42:36;;;;;;;8.13;5.68;;;14.10;99.90;;;;;;4883718;29;20144;-83
2021/09/29 02:45:05;;;;;;;9.00;5.65;;;14.10;99.90;;;;;;4900306;29;20139;-82
2021/09/29 02:47:32;;;;;;;8.43;5.60;;;14.10;99.90;;;;;;4900476;29;20127;-84
2021/09/29 02:49:59;;;;;;;7.55;5.75;;;14.00;99.90;;;;;;4901477;29;20388;-84
2021/09/29 02:52:26;;;;;;;7.43;5.40;;;14.00;99.90;;;;;;4901054;29;20048;-83
2021/09/29 02:54:55;;;;;;;12.10;6.40;;;14.00;99.90;;;;;;4900829;29;20144;-85
2021/09/29 02:57:22;;;;;;;9.93;6.57;;;13.90;99.90;;;;;;4900684;29;20137;-83
2021/09/29 02:59:49;;;;;;;9.13;6.13;;;13.90;99.90;;;;;;4925751;29;20140;-85
2021/09/29 03:02:21;;;;;;;8.57;5.78;;;13.90;99.90;;;;;;4897231;29;20049;-83
2021/09/29 03:04:48;;;;;;;9.70;6.15;;;13.80;99.90;;;;;;4893854;29;20041;-84
2021/09/29 03:07:15;;;;;;;10.15;6.35;;;13.80;99.90;;;;;;4898915;29;20060;-84
2021/09/29 03:09:42;;;;;;;8.88;6.20;;;13.70;99.90;;;;;;4897976;29;20146;-83
2021/09/29 03:12:13;;;;;;;8.57;5.65;;;13.70;99.90;;;;;;4897958;29;20135;-83
2021/09/29 03:14:40;;;;;;;9.57;6.07;;;13.70;99.90;;;;;;4891148;29;20452;-83
2021/09/29 03:17:07;;;;;;;8.85;6.43;;;13.70;99.90;;;;;;4897231;29;20131;-80
2021/09/29 03:19:34;;;;;;;9.55;5.93;;;13.60;99.90;;;;;;4896133;29;20060;-85
2021/09/29 03:22:02;;;;;;;8.82;6.40;;;13.60;99.90;;;;;;4898051;29;20057;-83
2021/09/29 03:24:30;;;;;;;11.40;6.60;;;13.60;99.90;;;;;;4898340;29;20052;-85
2021/09/29 03:26:58;;;;;;;10.95;6.75;;;13.60;99.90;;;;;;4890768;29;20149;-83
2021/09/29 03:29:26;;;;;;;8.93;6.07;;;13.60;99.90;;;;;;4895656;29;20486;-81
2021/09/29 03:31:54;;;;;;;8.35;6.10;;;13.60;99.90;;;;;;4897096;29;20135;-82
2021/09/29 03:34:21;;;;;;;10.27;5.75;;;13.60;99.90;;;;;;4896081;29;20068;-83
2021/09/29 03:36:48;;;;;;;9.55;6.15;;;13.60;99.90;;;;;;4891223;29;20048;-82
2021/09/29 03:39:15;;;;;;;8.40;6.07;;;13.60;99.90;;;;;;4897765;29;20135;-84
2021/09/29 03:41:43;;;;;;;9.23;6.05;;;13.60;99.90;;;;;;4898203;29;20153;-82
2021/09/29 03:44:10;;;;;;;10.38;6.18;;;13.60;99.90;;;;;;4897685;29;20491;-83
2021/09/29 03:46:39;;;;;;;8.55;5.57;;;13.60;99.90;;;;;;4897004;29;20131;-80
2021/09/29 03:49:06;;;;;;;9.57;5.70;;;13.60;99.90;;;;;;4895183;29;20052;-80
2021/09/29 03:51:33;;;;;;;12.30;6.35;;;13.60;99.90;;;;;;4895797;29;20459;-81
2021/09/29 03:54:00;;;;;;;9.02;6.03;;;13.50;99.90;;;;;;4895782;29;20115;-81
2021/09/29 03:56:28;;;;;;;10.80;6.00;;;13.50;99.90;;;;;;4897415;29;20135;-83
2021/09/29 03:58:55;;;;;;;8.73;5.85;;;13.50;99.90;;;;;;4895685;29;20049;-80
2021/09/29 04:01:22;;;;;;;11.75;6.55;;;13.40;99.90;;;;;;4894866;29;20055;-81
2021/09/29 04:03:51;;;;;;;11.85;6.60;;;13.40;99.90;;;;;;4897766;29;20131;-80
2021/09/29 04:06:18;;;;;;;9.15;5.65;;;13.30;99.90;;;;;;4898584;29;20131;-79
2021/09/29 04:08:45;;;;;;;9.85;6.15;;;13.30;99.90;;;;;;4898815;29;20080;-80
2021/09/29 04:11:13;;;;;;;8.90;6.18;;;13.30;99.90;;;;;;4899110;29;20139;-83
2021/09/29 04:13:40;;;;;;;7.97;6.18;;;13.20;99.90;;;;;;4898636;29;20095;-80
2021/09/29 04:16:07;;;;;;;8.35;6.15;;;13.20;99.90;;;;;;4897552;29;20478;-80
2021/09/29 04:18:34;;;;;;;8.38;5.97;;;13.10;99.90;;;;;;4897369;29;20525;-78
2021/09/29 04:21:03;;;;;;;10.25;6.38;;;13.10;99.90;;;;;;4899377;29;20163;-82
2021/09/29 04:23:31;;;;;;;10.23;6.45;;;13.10;99.90;;;;;;4899021;29;20140;-80
2021/09/29 04:25:58;;;;;;;11.00;6.90;;;13.10;99.90;;;;;;4899338;29;20053;-81
2021/09/29 04:28:26;;;;;;;10.93;6.80;;;13.10;99.90;;;;;;4898863;29;20066;-81
2021/09/29 04:30:53;;;;;;;9.80;6.45;;;13.10;99.90;;;;;;4898087;29;20054;-81
2021/09/29 04:33:20;;;;;;;10.23;6.53;;;13.10;99.90;;;;;;4898963;29;20139;-81
2021/09/29 04:35:47;;;;;;;8.70;6.57;;;13.10;99.90;;;;;;4898937;29;20140;-80
2021/09/29 04:38:15;;;;;;;9.93;6.25;;;13.10;99.90;;;;;;4898783;29;20155;-81
2021/09/29 04:40:43;;;;;;;10.52;6.45;;;13.10;99.90;;;;;;4898936;29;20591;-82
2021/09/29 04:43:10;;;;;;;9.20;6.43;;;13.10;99.90;;;;;;4898631;29;20144;-81
2021/09/29 04:45:37;;;;;;;9.55;6.45;;;13.10;99.90;;;;;;4898348;29;20140;-80
2021/09/29 04:48:05;;;;;;;10.23;7.03;;;13.10;99.90;;;;;;4898163;29;20091;-81
2021/09/29 04:50:33;;;;;;;9.70;6.80;;;13.10;99.90;;;;;;4899342;29;20144;-79
2021/09/29 04:53:00;;;;;;;10.32;7.00;;;13.10;99.90;;;;;;4899179;29;20084;-81
2021/09/29 04:55:30;;;;;;;10.40;6.53;;;13.10;99.90;;;;;;4898860;29;20104;-83
2021/09/29 04:57:58;;;;;;;9.93;6.45;;;13.10;99.90;;;;;;4898660;29;20410;-81
2021/09/29 05:00:25;;;;;;;10.73;7.28;;;13.10;99.90;;;;;;4898754;29;20147;-80
2021/09/29 05:02:53;;;;;;;11.85;6.78;;;13.10;99.90;;;;;;4898646;29;20139;-81
2021/09/29 05:05:20;;;;;;;10.88;6.57;;;13.10;99.90;;;;;;4898733;29;20091;-81
2021/09/29 05:07:52;;;;;;;9.75;6.60;;;13.10;99.90;;;;;;4899152;29;20140;-82
2021/09/29 05:10:26;;;;;;;11.15;6.43;;;13.10;99.90;;;;;;4899055;29;20095;-81
2021/09/29 05:12:59;;;;;;;9.30;6.03;;;13.10;99.90;;;;;;4898471;29;20075;-82
2021/09/29 05:15:26;;;;;;;8.48;5.40;;;13.10;99.90;;;;;;4898134;29;20616;-82
2021/09/29 05:17:53;;;;;;;9.13;5.65;;;13.10;99.90;;;;;;4913194;29;20060;-80
2021/09/29 05:20:20;;;;;;;7.35;4.93;;;13.10;99.90;;;;;;4919691;29;20142;-82
2021/09/29 05:22:47;;;;;;;8.30;5.53;;;13.10;99.90;;;;;;4921370;29;20470;-81
2021/09/29 05:25:14;;;;;;;7.25;4.72;;;13.20;99.90;;;;;;4918689;29;20139;-80
2021/09/29 05:27:41;;;;;;;9.93;5.18;;;13.20;99.90;;;;;;4906144;29;20132;-80
2021/09/29 05:30:12;;;;;;;8.55;4.90;;;13.20;99.90;;;;;;4899019;29;20414;-80
2021/09/29 05:32:39;;;;;;;8.23;4.68;;;13.20;99.90;;;;;;4898750;29;20147;-80
2021/09/29 05:35:07;;;;;;;7.65;4.32;;;13.30;99.90;;;;;;4898754;29;20147;-81
2021/09/29 05:37:34;;;;;;;8.95;4.72;;;13.30;99.90;;;;;;4898470;29;20076;-81
2021/09/29 05:40:01;;;;;;;8.25;4.53;;;13.20;99.90;;;;;;4899076;29;20582;-80
2021/09/29 05:42:28;;;;;;;7.82;4.60;;;13.20;99.90;;;;;;4898426;29;20137;-81
2021/09/29 05:44:55;;;;;;;6.07;4.45;;;13.30;99.90;;;;;;4902501;29;20060;-79
2021/09/29 05:47:24;;;;;;;6.75;4.00;;;13.30;99.90;;;;;;4905852;29;20139;-81
2021/09/29 05:49:51;;;;;;;7.28;4.10;;;13.30;99.90;;;;;;4902681;29;20057;-80
2021/09/29 05:52:18;;;;;;;7.20;4.25;;;13.30;99.90;;;;;;4901119;29;20144;-81
2021/09/29 05:54:45;;;;;;;7.60;4.25;;;13.30;99.90;;;;;;4901676;29;20128;-79
2021/09/29 05:57:13;;;;;;;7.82;4.38;;;13.30;99.90;;;;;;4901677;29;20083;-82
2021/09/29 05:59:40;;;;;;;7.65;4.43;;;13.30;99.90;;;;;;4901594;29;20491;-81
2021/09/29 06:02:07;;;;;;;6.63;4.15;;;13.30;99.90;;;;;;4901075;29;20065;-81
2021/09/29 06:04:37;;;;;;;6.65;3.92;;;13.40;99.90;;;;;;4901684;29;20136;-81
2021/09/29 06:07:05;;;;;;;6.45;3.70;;;13.40;99.90;;;;;;4890858;29;20057;-82
2021/09/29 06:09:32;;;;;;;6.97;3.70;;;13.40;99.90;;;;;;4900732;29;20044;-81
2021/09/29 06:11:59;;;;;;;8.45;3.70;;;13.40;99.90;;;;;;4901704;29;20140;-81
2021/09/29 06:14:26;;;;;;;7.07;3.92;;;13.40;99.90;;;;;;4901117;29;20080;-81
2021/09/29 06:16:59;;;;;;;8.18;3.90;;;13.50;99.90;;;;;;4901079;29;20139;-80
2021/09/29 06:19:27;;;;;;;6.10;3.90;;;13.50;99.90;;;;;;4901027;29;20056;-81
2021/09/29 06:21:55;;;;;;;7.57;3.80;;;13.50;99.90;;;;;;4900573;29;20140;-82
2021/09/29 06:24:22;;;;;;;6.65;3.58;;;13.50;99.90;;;;;;4908611;29;20150;-81
2021/09/29 06:26:49;;;;;;;6.05;3.40;;;13.50;99.90;;;;;;4908132;29;20554;-82
2021/09/29 06:29:16;;;;;;;6.47;3.03;;;13.50;99.90;;;;;;4900836;29;20555;-81
2021/09/29 06:31:43;;;;;;;5.22;3.08;;;13.60;99.90;;;;;;4900537;29;20143;-82
2021/09/29 06:34:10;;;;;;;6.78;3.65;;;13.60;99.90;;;;;;4895706;29;20080;-80
2021/09/29 06:36:37;;;;;;;6.88;3.33;;;13.60;99.90;;;;;;4899899;29;20139;-81
2021/09/29 06:39:06;;;;;;;6.38;2.90;;;13.60;99.90;;;;;;4900322;29;20144;-80
2021/09/29 06:41:33;;;;;;;5.65;3.15;;;13.70;99.90;;;;;;4900213;29;20139;-81
2021/09/29 06:44:00;;;;;;;5.82;2.95;;;13.70;99.90;;;;;;4900538;29;20140;-80
2021/09/29 06:46:27;;;;;;;6.03;2.88;;;13.80;99.90;;;;;;4899673;29;20076;-82
2021/09/29 06:48:54;;;;;;;5.18;2.65;;;13.70;99.90;;;;;;4900413;29;20131;-82
2021/09/29 06:51:21;;;;;;;4.63;2.50;;;13.80;99.90;;;;;;4900088;29;20165;-80
2021/09/29 06:53:48;;;;;;;5.32;2.38;;;13.80;99.90;;;;;;4899971;29;20048;-81
2021/09/29 06:56:17;;;;;;;5.47;2.50;;;13.80;99.90;;;;;;4900571;29;20116;-81
2021/09/29 06:58:45;;;;;;;4.80;2.47;;;13.90;99.90;;;;;;4901442;29;20139;-80
2021/09/29 07:01:13;;;;;;;5.05;2.50;;;14.00;99.90;;;;;;4900543;29;20127;-82
2021/09/29 07:03:43;;;;;;;4.72;2.40;;;14.00;99.90;;;;;;4899940;29;20233;-82
2021/09/29 07:06:10;;;;;;;4.72;2.30;;;14.10;99.90;;;;;;4900383;29;20048;-81
2021/09/29 07:08:37;;;;;;;5.78;1.98;;;14.10;99.90;;;;;;4900483;29;20135;-81
2021/09/29 07:11:05;;;;;;;6.10;2.40;;;14.10;99.90;;;;;;4900307;29;20131;-81
2021/09/29 07:13:34;;;;;;;4.13;2.05;;;14.20;99.90;;;;;;4900178;29;20546;-81
2021/09/29 07:16:01;;;;;;;6.50;2.20;;;14.20;99.90;;;;;;4900002;29;20112;-81
2021/09/29 07:18:30;;;;;;;4.00;2.03;;;14.30;99.90;;;;;;4899343;29;20094;-79
2021/09/29 07:20:58;;;;;;;5.18;1.90;;;14.30;99.90;;;;;;4899873;29;20099;-80
2021/09/29 07:23:25;;;;;;;6.00;2.15;;;14.40;99.90;;;;;;4899531;29;20135;-81
2021/09/29 07:25:53;;;;;;;7.85;2.28;;;14.40;99.90;;;;;;4899850;29;20136;-81
2021/09/29 07:28:21;;;;;;;6.38;2.58;;;14.50;99.90;;;;;;4899646;29;20139;-80
2021/09/29 07:30:49;;;;;;;4.35;1.83;;;14.60;99.90;;;;;;4899541;29;20144;-83
2021/09/29 07:33:17;;;;;;;4.57;1.85;;;14.60;99.90;;;;;;4920665;29;20083;-81
2021/09/29 07:35:45;;;;;;;3.92;1.70;;;14.60;99.90;;;;;;4910286;29;20136;-80
2021/09/29 07:38:13;;;;;;;3.97;1.65;;;14.60;99.90;;;;;;4899646;29;20045;-81
2021/09/29 07:40:41;;;;;;;3.85;1.75;;;14.70;99.90;;;;;;4899928;29;20136;-81
2021/09/29 07:43:08;;;;;;;4.15;1.55;;;14.70;99.90;;;;;;4900487;29;20080;-81
2021/09/29 07:45:35;;;;;;;4.68;1.52;;;14.80;99.90;;;;;;4898796;29;20116;-80
2021/09/29 07:48:05;;;;;;;4.35;1.60;;;14.80;99.90;;;;;;4899400;29;20055;-81
2021/09/29 07:50:32;;;;;;;2.90;1.38;;;14.90;99.90;;;;;;4899255;29;20430;-79
2021/09/29 07:52:59;;;;;;;4.28;1.40;;;15.00;99.90;;;;;;4899421;29;20124;-82
2021/09/29 07:55:26;;;;;;;4.25;1.30;;;15.00;99.90;;;;;;4899533;29;20088;-81
2021/09/29 07:57:53;;;;;;;6.53;1.67;;;15.10;99.70;;;;;;4899160;29;20087;-82
2021/09/29 08:00:21;;;;;;;5.38;1.80;;;15.10;99.40;;;;;;4898798;29;20137;-81
2021/09/29 08:02:48;;;;;;;5.50;1.50;;;15.20;98.80;;;;;;4898892;29;20779;-81
2021/09/29 08:05:17;;;;;;;3.08;1.45;;;15.20;98.30;;;;;;4898104;29;20057;-81
2021/09/29 08:07:45;;;;;;;4.55;1.50;;;15.30;98.20;;;;;;4899257;29;20056;-81
2021/09/29 08:10:12;;;;;;;5.43;1.60;;;15.30;98.00;;;;;;4899308;29;20127;-81
2021/09/29 08:12:39;;;;;;;4.10;1.70;;;15.30;98.10;;;;;;4898504;29;20492;-83
2021/09/29 08:15:12;;;;;;;4.75;1.50;;;15.40;97.90;;;;;;4898119;29;20127;-80
2021/09/29 08:17:39;;;;;;;4.00;1.20;;;15.40;97.80;;;;;;4898661;29;20080;-80
2021/09/29 08:20:09;;;;;;;4.45;1.30;;;15.40;97.80;;;;;;4898709;29;20076;-82
2021/09/29 08:22:39;;;;;;;3.63;1.10;;;15.40;97.60;;;;;;4898713;29;20143;-81
2021/09/29 08:25:17;;;;;;;4.35;1.40;;;15.50;97.60;;;;;;4898547;29;20061;-81
2021/09/29 08:30:41;;;;;;;4.30;1.40;;;15.60;97.30;;;;;;4896689;29;20049;-80
2021/09/29 08:33:15;;;;;;;4.88;1.20;;;15.60;97.00;;;;;;4898661;29;20048;-81
2021/09/29 08:35:50;;;;;;;4.20;1.27;;;15.70;97.20;;;;;;4907036;29;20048;-81
2021/09/29 08:38:28;;;;;;;4.28;1.30;;;15.70;97.20;;;;;;4918044;29;20044;-81
2021/09/29 08:41:02;;;;;;;6.05;1.42;;;15.80;97.00;;;;;;4917779;29;20060;-81
2021/09/29 08:43:41;;;;;;;5.22;1.17;;;15.90;96.90;;;;;;4905661;29;20483;-81
2021/09/29 08:46:13;;;;;;;4.28;1.30;;;15.90;96.80;;;;;;4898168;29;20068;-82
2021/09/29 08:48:47;;;;;;;3.33;1.10;;;15.90;96.80;;;;;;4897820;29;20060;-81
2021/09/29 08:51:34;;;;;;;4.35;1.10;;;16.00;96.50;;;;;;4897912;29;20071;-80
2021/09/29 08:54:12;;;;;;;4.57;1.05;;;16.00;96.50;;;;;;4879844;29;20059;-81
2021/09/29 08:56:51;;;;;;;5.00;1.00;;;16.10;95.70;;;;;;4879417;29;20061;-78
2021/09/29 09:16:07;;;;;;;3.67;1.00;;;16.60;93.60;;;;;;4911100;29;20068;-83
2021/09/29 09:18:34;;;;;;;3.15;0.90;;;16.70;93.70;;;;;;4914886;29;20116;-82
2021/09/29 09:21:04;;;;;;;2.92;0.80;;;16.70;93.10;;;;;;4900837;29;20127;-82
2021/09/29 09:23:37;;;;;;;3.22;0.90;;;16.80;93.20;;;;;;4901959;29;20053;-82
2021/09/29 09:26:20;;;;;;;4.70;1.00;;;16.80;93.10;;;;;;4901495;29;20048;-77
2021/09/29 09:28:49;;;;;;;3.53;0.90;;;16.90;93.10;;;;;;4900966;29;20053;-74
2021/09/29 09:31:19;;;;;;;4.60;0.90;;;17.00;93.30;;;;;;4896260;29;20088;-76
2021/09/29 09:33:51;;;;;;;3.58;0.80;;;17.10;93.30;;;;;;4900875;29;20048;-77
2021/09/29 09:36:34;;;;;;;2.70;1.10;;;17.20;93.10;;;;;;4900624;29;20159;-76
2021/09/29 09:39:06;;;;;;;3.20;0.95;;;17.20;93.50;;;;;;4900642;29;20058;-76
2021/09/29 09:41:34;;;;;;;3.72;0.98;;;17.40;93.60;;;;;;4901004;29;20052;-75
2021/09/29 09:44:04;;;;;;;3.75;0.90;;;17.50;93.30;;;;;;4900797;29;20049;-79
2021/09/29 09:46:32;;;;;;;5.13;1.23;;;17.50;92.70;;;;;;4900909;29;20049;-77
2021/09/29 09:49:02;;;;;;;4.93;1.10;;;17.60;92.90;;;;;;4900046;29;20143;-79
2021/09/29 09:51:32;;;;;;;5.38;0.80;;;17.60;93.00;;;;;;4900666;29;20106;-79
2021/09/29 09:53:59;;;;;;;3.45;1.05;;;17.60;92.60;;;;;;4900455;29;20053;-79
2021/09/29 09:56:30;;;;;;;3.20;1.10;;;17.60;91.70;;;;;;4900831;29;20139;-79
2021/09/29 09:58:59;;;;;;;3.28;0.90;;;17.60;91.20;;;;;;4899694;29;20091;-79
2021/09/29 10:01:29;;;;;;;2.80;0.80;;;17.60;91.30;;;;;;4900071;29;20558;-78
2021/09/29 10:04:08;;;;;;;3.58;1.10;;;17.60;91.00;;;;;;4903044;29;20071;-77
2021/09/29 10:06:35;;;;;;;3.88;0.90;;;17.70;90.80;;;;;;4919046;29;20143;-79
2021/09/29 10:09:09;;;;;;;3.50;0.90;;;17.80;90.50;;;;;;4908057;29;20049;-79
2021/09/29 10:11:48;;;;;;;4.95;0.80;;;17.80;90.40;;;;;;4900264;29;20530;-79
2021/09/29 10:14:36;;;;;;;4.70;0.90;;;17.90;89.30;;;;;;4897084;29;20060;-78
2021/09/29 10:23:08;;;;;;;2.25;0.80;;;17.90;87.40;;;;;;4884887;29;20128;-78
2021/09/29 10:28:26;;;;;;;2.47;0.80;;;17.80;87.30;;;;;;4888480;29;20104;-78
2021/09/29 10:31:12;;;;;;;3.88;1.00;;;17.90;88.10;;;;;;4896367;29;20063;-78
2021/09/29 10:33:43;;;;;;;3.67;0.98;;;18.00;88.50;;;;;;4896469;29;20091;-79
2021/09/29 10:36:22;;;;;;;3.75;1.00;;;18.00;88.40;;;;;;4895476;29;20048;-79
2021/09/29 10:41:50;;;;;;;2.92;0.77;;;18.10;86.90;;;;;;4895219;29;20060;-80
2021/09/29 10:44:22;;;;;;;2.53;0.75;;;18.10;86.20;;;;;;4895835;29;20060;-79
2021/09/29 10:47:03;;;;;;;3.25;1.00;;;18.20;85.50;;;;;;4895653;29;20060;-80
2021/09/29 10:49:42;;;;;;;2.70;0.90;;;18.20;84.80;;;;;;4878166;29;20080;-80
2021/09/29 10:52:26;;;;;;;3.50;0.90;;;18.40;85.20;;;;;;4882416;29;20060;-79
2021/09/29 11:12:09;;;;;;;3.05;0.65;;;18.70;77.70;;;;;;5067215;28;20056;-78
2021/09/29 11:28:50;;;;;;;3.03;0.80;;;18.90;76.30;;;;;;5066936;28;20055;-79
2021/09/29 11:31:20;;;;;;;2.72;0.80;;;18.90;77.00;;;;;;5066590;28;20139;-79
2021/09/29 11:33:57;;;;;;;4.47;1.10;;;19.00;75.60;;;;;;5066963;28;20051;-79
2021/09/29 11:36:42;;;;;;;3.38;1.00;;;19.00;76.40;;;;;;5067179;28;20174;-77
2021/09/29 12:09:53;;;;;;;4.97;1.02;;;19.50;71.00;;;;;;5065526;28;20071;-80
2021/09/29 12:12:24;;;;;;;3.70;1.00;;;19.40;71.60;;;;;;5065561;28;20051;-79
2021/09/29 12:14:55;;;;;;;4.88;1.00;;;19.50;71.90;;;;;;5065899;28;20044;-78
2021/09/29 12:17:24;;;;;;;3.70;0.90;;;19.50;71.80;;;;;;5065236;28;20155;-78
2021/09/29 12:19:55;;;;;;;4.13;1.10;;;19.50;71.30;;;;;;5054621;28;20152;-78
2021/09/29 12:22:24;;;;;;;4.00;0.98;;;19.60;71.40;;;;;;5052259;28;20045;-79
2021/09/29 12:24:57;;;;;;;2.67;0.70;;;19.50;71.30;;;;;;5051906;28;20045;-78
2021/09/29 12:27:32;;;;;;;2.60;0.73;;;19.50;71.50;;;;;;5053218;28;20053;-80
2021/09/29 12:30:16;;;;;;;3.20;1.00;;;19.40;70.60;;;;;;5052014;28;20056;-80
2021/09/29 12:32:59;;;;;;;;;;;19.30;71.60;;;;;;5053044;28;20123;-79
2021/09/29 12:35:37;;;;;;;4.60;1.35;;;19.30;72.20;;;;;;5051574;28;19966;-79
2021/09/29 12:38:05;;;;;;;3.63;1.27;;;19.40;72.20;;;;;;5052484;28;20375;-78
2021/09/29 12:40:35;;;;;;;4.72;1.10;;;19.40;72.60;;;;;;5053060;28;20140;-79
2021/09/29 12:43:04;;;;;;;2.42;0.80;;;19.60;72.50;;;;;;5052919;28;20055;-78
2021/09/29 12:45:37;;;;;;;2.92;0.90;;;19.80;73.30;;;;;;5051622;28;20139;-77
2021/09/29 12:48:08;;;;;;;4.10;0.82;;;20.00;72.70;;;;;;5052396;28;20478;-79
2021/09/29 12:50:41;;;;;;;2.65;0.90;;;20.10;72.00;;;;;;5051419;28;20049;-76
2021/09/29 12:53:18;;;;;;;2.58;0.65;;;20.30;71.20;;;;;;5051921;28;20103;-75
2021/09/29 12:55:50;;;;;;;2.10;0.77;;;20.50;70.70;;;;;;5052281;28;20049;-80
2021/09/29 12:58:17;;;;;;;3.50;1.10;;;20.80;70.90;;;;;;5051732;28;20131;-78
2021/09/29 13:00:46;;;;;;;3.92;0.80;;;20.90;70.20;;;;;;5051489;28;20566;-78
2021/09/29 13:03:13;;;;;;;3.55;0.75;;;20.90;68.80;;;;;;5051434;28;20132;-79
2021/09/29 13:05:41;;;;;;;2.78;0.70;;;20.90;68.90;;;;;;5051066;28;20048;-79
2021/09/29 13:08:08;;;;;;;2.00;0.52;;;21.00;67.70;;;;;;5051600;28;20060;-78
2021/09/29 13:10:35;;;;;;;3.55;0.77;;;21.00;66.10;;;;;;5051827;28;20137;-79
2021/09/29 13:13:02;;;;;;;4.13;0.52;;;20.90;66.40;;;;;;5051387;28;20411;-79
2021/09/29 13:15:29;;;;;;;2.92;0.80;;;21.00;66.60;;;;;;5051303;28;20132;-77
2021/09/29 13:17:58;;;;;;;3.58;0.65;;;21.00;65.30;;;;;;5051170;28;20148;-78
2021/09/29 13:20:27;;;;;;;2.90;0.70;;;20.90;65.40;;;;;;5051767;28;20060;-80
2021/09/29 13:22:59;;;;;;;2.85;0.80;;;20.70;65.30;;;;;;5051098;28;20513;-80
2021/09/29 13:25:55;;;;;;;3.20;0.80;;;20.60;65.70;;;;;;5051701;28;20055;-79
2021/09/29 13:36:39;;;;;;;3.13;0.70;;;20.00;67.00;;;;;;5051484;28;19943;-80
2021/09/29 13:39:10;;;;;;;3.40;0.60;;;20.00;67.50;;;;;;5050848;28;20063;-82
2021/09/29 13:41:38;;;;;;;2.90;0.70;;;20.00;69.30;;;;;;5051309;28;20081;-80
2021/09/29 13:44:08;;;;;;;4.07;0.88;;;20.00;70.00;;;;;;5051430;28;20057;-82
2021/09/29 13:46:35;;;;;;;3.50;0.65;;;19.90;70.90;;;;;;5051153;28;20053;-81
2021/09/29 13:49:05;;;;;;;6.43;0.60;;;19.80;70.60;;;;;;5049941;28;20059;-80
2021/09/29 13:51:33;;;;;;;1.52;0.40;;;19.60;72.10;;;;;;5051332;28;20076;-81
2021/09/29 13:54:06;;;;;;;2.38;0.60;;;19.40;73.50;;;;;;5065983;28;20557;-79
2021/09/29 13:56:42;;;;;;;2.42;0.50;;;19.20;75.20;;;;;;5050996;28;20128;-80
2021/09/29 14:29:43;;;;;;;4.38;0.70;;;18.80;83.80;;;;;;5051098;28;20060;-80
2021/09/29 14:32:16;;;;;;;1.90;0.50;;;18.50;86.10;;;;;;5050727;28;20048;-80
2021/09/29 14:34:43;;;;;;;2.10;0.50;;;18.20;88.40;;;;;;5049474;28;20111;-81
2021/09/29 14:37:12;;;;;;;2.20;0.70;;;17.90;90.10;;;;;;5050156;28;20088;-81
2021/09/29 14:39:39;;;;;;;3.28;0.65;;;17.80;91.10;;;;;;5050029;28;20557;-82
2021/09/29 14:42:07;;;;;;;2.67;0.73;;;17.60;92.50;;;;;;5050292;28;20806;-84
2021/09/29 14:44:35;;;;;;;3.85;0.85;;;17.50;94.00;;;;;;5050939;28;20053;-81
2021/09/29 14:47:09;;;;;;;3.25;0.70;;;17.30;95.20;;;;;;5049800;28;20052;-83
2021/09/29 14:49:37;;;;;;;2.72;0.77;;;17.20;96.50;;;;;;5050434;28;20053;-80
2021/09/29 14:52:05;;;;;;;2.22;0.60;;;17.10;97.50;;;;;;5048639;28;20629;-85
2021/09/29 14:54:34;;;;;;;3.45;0.75;;;16.90;98.00;;;;;;5049858;28;20045;-84
2021/09/29 14:57:02;;;;;;;2.20;0.73;;;16.80;98.60;;;;;;5049773;28;20773;-81
2021/09/29 14:59:29;;;;;;;2.25;0.75;;;16.70;99.30;;;;;;5048746;28;20106;-80
2021/09/29 15:01:56;;;;;;;4.15;0.90;;;16.50;99.90;;;;;;5048971;28;20132;-81
2021/09/29 15:04:24;;;;;;;2.42;0.63;;;16.30;99.90;;;;;;5049412;28;20136;-81
2021/09/29 15:06:51;;;;;;;1.52;0.50;;;16.20;99.90;;;;;;5049428;28;20483;-82
2021/09/29 15:09:18;;;;;;;1.25;0.35;;;16.00;99.90;;;;;;5049284;28;20136;-83